sensor_id;sensor_type;location;lat;lon;timestamp;P1;durP1;ratioP1;P2;durP2;ratioP2
9739;SDS011;4909;42.680;26.324;2023-08-31T00:01:58;463.27;;;423.03;;
9739;SDS011;4909;42.680;26.324;2023-08-31T00:04:26;459.50;;;418.87;;
9739;SDS011;4909;42.680;26.324;2023-08-31T00:06:52;459.67;;;419.20;;
9739;SDS011;4909;42.680;26.324;2023-08-31T00:09:19;466.93;;;426.60;;
9739;SDS011;4909;42.680;26.324;2023-08-31T00:11:46;464.30;;;423.53;;
9739;SDS011;4909;42.680;26.324;2023-08-31T00:14:12;464.40;;;423.80;;
9739;SDS011;4909;42.680;26.324;2023-08-31T00:16:40;448.90;;;408.97;;
9739;SDS011;4909;42.680;26.324;2023-08-31T00:19:08;466.87;;;426.47;;
9739;SDS011;4909;42.680;26.324;2023-08-31T00:21:34;470.00;;;429.57;;
9739;SDS011;4909;42.680;26.324;2023-08-31T00:24:01;443.90;;;403.90;;
9739;SDS011;4909;42.680;26.324;2023-08-31T00:26:28;461.90;;;421.47;;
9739;SDS011;4909;42.680;26.324;2023-08-31T00:28:56;475.80;;;435.00;;
9739;SDS011;4909;42.680;26.324;2023-08-31T00:31:23;475.53;;;434.80;;
9739;SDS011;4909;42.680;26.324;2023-08-31T00:33:52;456.93;;;416.73;;
9739;SDS011;4909;42.680;26.324;2023-08-31T00:36:18;466.40;;;426.03;;
9739;SDS011;4909;42.680;26.324;2023-08-31T00:38:45;447.90;;;407.63;;
9739;SDS011;4909;42.680;26.324;2023-08-31T00:41:12;457.57;;;417.20;;
9739;SDS011;4909;42.680;26.324;2023-08-31T00:43:39;443.20;;;403.13;;
9739;SDS011;4909;42.680;26.324;2023-08-31T00:46:06;450.60;;;410.27;;
9739;SDS011;4909;42.680;26.324;2023-08-31T00:48:32;450.03;;;409.90;;
9739;SDS011;4909;42.680;26.324;2023-08-31T00:51:01;436.80;;;396.90;;
9739;SDS011;4909;42.680;26.324;2023-08-31T00:53:29;446.13;;;406.17;;
9739;SDS011;4909;42.680;26.324;2023-08-31T00:55:56;450.67;;;410.37;;
9739;SDS011;4909;42.680;26.324;2023-08-31T00:58:23;441.87;;;401.73;;
9739;SDS011;4909;42.680;26.324;2023-08-31T01:00:55;435.43;;;395.33;;
9739;SDS011;4909;42.680;26.324;2023-08-31T01:03:35;441.73;;;401.40;;
9739;SDS011;4909;42.680;26.324;2023-08-31T01:06:12;439.40;;;399.10;;
9739;SDS011;4909;42.680;26.324;2023-08-31T01:08:47;431.63;;;391.17;;
9739;SDS011;4909;42.680;26.324;2023-08-31T01:11:21;432.50;;;392.50;;
9739;SDS011;4909;42.680;26.324;2023-08-31T01:13:58;417.07;;;377.43;;
9739;SDS011;4909;42.680;26.324;2023-08-31T01:16:29;431.63;;;391.37;;
9739;SDS011;4909;42.680;26.324;2023-08-31T01:19:00;432.43;;;392.30;;
9739;SDS011;4909;42.680;26.324;2023-08-31T01:21:30;421.73;;;381.77;;
9739;SDS011;4909;42.680;26.324;2023-08-31T01:24:05;420.30;;;380.57;;
9739;SDS011;4909;42.680;26.324;2023-08-31T01:26:33;440.80;;;400.70;;
9739;SDS011;4909;42.680;26.324;2023-08-31T01:29:00;429.43;;;389.27;;
9739;SDS011;4909;42.680;26.324;2023-08-31T01:31:28;420.37;;;380.47;;
9739;SDS011;4909;42.680;26.324;2023-08-31T01:33:54;422.23;;;382.47;;
9739;SDS011;4909;42.680;26.324;2023-08-31T01:36:23;424.50;;;384.90;;
9739;SDS011;4909;42.680;26.324;2023-08-31T01:38:58;434.37;;;394.27;;
9739;SDS011;4909;42.680;26.324;2023-08-31T01:41:34;428.57;;;388.43;;
9739;SDS011;4909;42.680;26.324;2023-08-31T01:44:02;419.53;;;379.43;;
9739;SDS011;4909;42.680;26.324;2023-08-31T01:46:32;414.03;;;373.93;;
9739;SDS011;4909;42.680;26.324;2023-08-31T01:48:59;421.03;;;381.20;;
9739;SDS011;4909;42.680;26.324;2023-08-31T01:51:25;420.77;;;381.00;;
9739;SDS011;4909;42.680;26.324;2023-08-31T01:53:53;435.77;;;395.87;;
9739;SDS011;4909;42.680;26.324;2023-08-31T01:56:19;421.57;;;381.80;;
9739;SDS011;4909;42.680;26.324;2023-08-31T01:58:48;430.10;;;390.13;;
9739;SDS011;4909;42.680;26.324;2023-08-31T02:01:15;426.53;;;386.80;;
9739;SDS011;4909;42.680;26.324;2023-08-31T02:03:43;422.27;;;382.57;;
9739;SDS011;4909;42.680;26.324;2023-08-31T02:06:09;420.47;;;380.40;;
9739;SDS011;4909;42.680;26.324;2023-08-31T02:08:36;420.97;;;381.03;;
9739;SDS011;4909;42.680;26.324;2023-08-31T02:11:03;418.00;;;377.87;;
9739;SDS011;4909;42.680;26.324;2023-08-31T02:13:30;419.13;;;379.23;;
9739;SDS011;4909;42.680;26.324;2023-08-31T02:15:58;434.37;;;393.93;;
9739;SDS011;4909;42.680;26.324;2023-08-31T02:18:25;411.10;;;371.73;;
9739;SDS011;4909;42.680;26.324;2023-08-31T02:20:52;417.07;;;377.30;;
9739;SDS011;4909;42.680;26.324;2023-08-31T02:23:19;426.77;;;386.60;;
9739;SDS011;4909;42.680;26.324;2023-08-31T02:25:45;411.00;;;371.17;;
9739;SDS011;4909;42.680;26.324;2023-08-31T02:28:12;427.23;;;387.30;;
9739;SDS011;4909;42.680;26.324;2023-08-31T02:30:39;407.03;;;367.63;;
9739;SDS011;4909;42.680;26.324;2023-08-31T02:33:07;416.97;;;377.03;;
9739;SDS011;4909;42.680;26.324;2023-08-31T02:35:34;429.07;;;389.23;;
9739;SDS011;4909;42.680;26.324;2023-08-31T02:38:01;419.47;;;380.03;;
9739;SDS011;4909;42.680;26.324;2023-08-31T02:40:28;419.90;;;380.23;;
9739;SDS011;4909;42.680;26.324;2023-08-31T02:42:54;409.67;;;369.73;;
9739;SDS011;4909;42.680;26.324;2023-08-31T02:45:21;423.63;;;383.90;;
9739;SDS011;4909;42.680;26.324;2023-08-31T02:47:48;413.83;;;373.97;;
9739;SDS011;4909;42.680;26.324;2023-08-31T02:50:17;416.97;;;377.23;;
9739;SDS011;4909;42.680;26.324;2023-08-31T02:52:43;410.97;;;371.30;;
9739;SDS011;4909;42.680;26.324;2023-08-31T02:55:10;412.70;;;373.17;;
9739;SDS011;4909;42.680;26.324;2023-08-31T02:57:37;420.93;;;381.30;;
9739;SDS011;4909;42.680;26.324;2023-08-31T03:00:04;423.83;;;383.73;;
9739;SDS011;4909;42.680;26.324;2023-08-31T03:02:37;422.10;;;382.33;;
9739;SDS011;4909;42.680;26.324;2023-08-31T03:05:04;417.20;;;377.63;;
9739;SDS011;4909;42.680;26.324;2023-08-31T03:07:33;415.53;;;375.93;;
9739;SDS011;4909;42.680;26.324;2023-08-31T03:10:00;419.83;;;379.77;;
9739;SDS011;4909;42.680;26.324;2023-08-31T03:12:26;418.73;;;379.03;;
9739;SDS011;4909;42.680;26.324;2023-08-31T03:14:53;417.63;;;377.67;;
9739;SDS011;4909;42.680;26.324;2023-08-31T03:17:20;408.63;;;369.03;;
9739;SDS011;4909;42.680;26.324;2023-08-31T03:19:47;408.73;;;368.73;;
9739;SDS011;4909;42.680;26.324;2023-08-31T03:22:13;421.53;;;382.00;;
9739;SDS011;4909;42.680;26.324;2023-08-31T03:24:42;403.80;;;364.50;;
9739;SDS011;4909;42.680;26.324;2023-08-31T03:27:09;412.83;;;373.03;;
9739;SDS011;4909;42.680;26.324;2023-08-31T03:29:35;412.33;;;372.57;;
9739;SDS011;4909;42.680;26.324;2023-08-31T03:32:02;410.53;;;370.80;;
9739;SDS011;4909;42.680;26.324;2023-08-31T03:34:29;431.37;;;391.30;;
9739;SDS011;4909;42.680;26.324;2023-08-31T03:36:56;412.57;;;372.70;;
9739;SDS011;4909;42.680;26.324;2023-08-31T03:39:24;425.17;;;385.30;;
9739;SDS011;4909;42.680;26.324;2023-08-31T03:41:52;418.77;;;379.37;;
9739;SDS011;4909;42.680;26.324;2023-08-31T03:44:20;420.97;;;381.10;;
9739;SDS011;4909;42.680;26.324;2023-08-31T03:46:46;424.13;;;384.23;;
9739;SDS011;4909;42.680;26.324;2023-08-31T03:49:14;416.10;;;376.60;;
9739;SDS011;4909;42.680;26.324;2023-08-31T03:51:40;406.73;;;367.03;;
9739;SDS011;4909;42.680;26.324;2023-08-31T03:54:08;417.00;;;377.73;;
9739;SDS011;4909;42.680;26.324;2023-08-31T03:56:35;441.23;;;400.77;;
9739;SDS011;4909;42.680;26.324;2023-08-31T03:59:03;418.73;;;379.10;;
9739;SDS011;4909;42.680;26.324;2023-08-31T04:01:31;441.20;;;401.27;;
9739;SDS011;4909;42.680;26.324;2023-08-31T04:03:59;437.37;;;397.27;;
9739;SDS011;4909;42.680;26.324;2023-08-31T04:06:25;443.87;;;403.77;;
9739;SDS011;4909;42.680;26.324;2023-08-31T04:08:53;430.77;;;390.70;;
9739;SDS011;4909;42.680;26.324;2023-08-31T04:11:20;432.03;;;392.47;;
9739;SDS011;4909;42.680;26.324;2023-08-31T04:13:47;442.43;;;402.43;;
9739;SDS011;4909;42.680;26.324;2023-08-31T04:16:15;446.87;;;406.90;;
9739;SDS011;4909;42.680;26.324;2023-08-31T04:18:42;418.90;;;379.20;;
9739;SDS011;4909;42.680;26.324;2023-08-31T04:21:10;433.80;;;394.33;;
9739;SDS011;4909;42.680;26.324;2023-08-31T04:23:37;443.10;;;403.00;;
9739;SDS011;4909;42.680;26.324;2023-08-31T04:26:09;431.03;;;390.93;;
9739;SDS011;4909;42.680;26.324;2023-08-31T04:28:36;427.20;;;387.57;;
9739;SDS011;4909;42.680;26.324;2023-08-31T04:31:04;428.93;;;388.83;;
9739;SDS011;4909;42.680;26.324;2023-08-31T04:33:33;432.57;;;392.63;;
9739;SDS011;4909;42.680;26.324;2023-08-31T04:36:00;456.53;;;416.17;;
9739;SDS011;4909;42.680;26.324;2023-08-31T04:38:28;440.70;;;400.80;;
9739;SDS011;4909;42.680;26.324;2023-08-31T04:40:57;468.30;;;427.60;;
9739;SDS011;4909;42.680;26.324;2023-08-31T04:43:24;447.80;;;407.13;;
9739;SDS011;4909;42.680;26.324;2023-08-31T04:45:51;452.90;;;412.60;;
9739;SDS011;4909;42.680;26.324;2023-08-31T04:48:18;457.50;;;417.33;;
9739;SDS011;4909;42.680;26.324;2023-08-31T04:50:46;454.47;;;414.13;;
9739;SDS011;4909;42.680;26.324;2023-08-31T04:53:12;452.17;;;411.77;;
9739;SDS011;4909;42.680;26.324;2023-08-31T04:55:39;455.10;;;414.83;;
9739;SDS011;4909;42.680;26.324;2023-08-31T04:58:06;445.83;;;405.37;;
9739;SDS011;4909;42.680;26.324;2023-08-31T05:00:33;432.50;;;392.27;;
9739;SDS011;4909;42.680;26.324;2023-08-31T05:02:59;443.90;;;403.80;;
9739;SDS011;4909;42.680;26.324;2023-08-31T05:05:27;452.83;;;412.77;;
9739;SDS011;4909;42.680;26.324;2023-08-31T05:07:55;446.87;;;406.63;;
9739;SDS011;4909;42.680;26.324;2023-08-31T05:10:22;463.10;;;422.47;;
9739;SDS011;4909;42.680;26.324;2023-08-31T05:12:49;450.33;;;410.33;;
9739;SDS011;4909;42.680;26.324;2023-08-31T05:15:16;453.13;;;412.47;;
9739;SDS011;4909;42.680;26.324;2023-08-31T05:17:43;456.20;;;415.97;;
9739;SDS011;4909;42.680;26.324;2023-08-31T05:20:10;446.17;;;406.40;;
9739;SDS011;4909;42.680;26.324;2023-08-31T05:22:37;450.73;;;410.73;;
9739;SDS011;4909;42.680;26.324;2023-08-31T05:25:06;467.40;;;425.37;;
9739;SDS011;4909;42.680;26.324;2023-08-31T05:27:33;454.03;;;413.73;;
9739;SDS011;4909;42.680;26.324;2023-08-31T05:30:00;456.63;;;416.40;;
9739;SDS011;4909;42.680;26.324;2023-08-31T05:32:27;475.40;;;434.60;;
9739;SDS011;4909;42.680;26.324;2023-08-31T05:34:54;458.07;;;418.13;;
9739;SDS011;4909;42.680;26.324;2023-08-31T05:37:21;455.53;;;414.53;;
9739;SDS011;4909;42.680;26.324;2023-08-31T05:39:48;468.83;;;428.43;;
9739;SDS011;4909;42.680;26.324;2023-08-31T05:42:16;495.93;;;454.67;;
9739;SDS011;4909;42.680;26.324;2023-08-31T05:44:43;481.77;;;440.83;;
9739;SDS011;4909;42.680;26.324;2023-08-31T05:47:09;490.70;;;450.07;;
9739;SDS011;4909;42.680;26.324;2023-08-31T05:49:36;471.60;;;430.97;;
9739;SDS011;4909;42.680;26.324;2023-08-31T05:52:03;476.83;;;436.47;;
9739;SDS011;4909;42.680;26.324;2023-08-31T05:54:30;484.57;;;444.00;;
9739;SDS011;4909;42.680;26.324;2023-08-31T05:56:57;483.47;;;442.83;;
9739;SDS011;4909;42.680;26.324;2023-08-31T05:59:25;496.80;;;455.33;;
9739;SDS011;4909;42.680;26.324;2023-08-31T06:01:52;478.93;;;438.10;;
9739;SDS011;4909;42.680;26.324;2023-08-31T06:04:19;486.60;;;445.73;;
9739;SDS011;4909;42.680;26.324;2023-08-31T06:06:45;471.30;;;430.83;;
9739;SDS011;4909;42.680;26.324;2023-08-31T06:09:12;489.93;;;448.93;;
9739;SDS011;4909;42.680;26.324;2023-08-31T06:11:39;504.67;;;463.77;;
9739;SDS011;4909;42.680;26.324;2023-08-31T06:14:06;517.43;;;476.10;;
9739;SDS011;4909;42.680;26.324;2023-08-31T06:16:34;504.80;;;463.40;;
9739;SDS011;4909;42.680;26.324;2023-08-31T06:19:01;511.83;;;470.97;;
9739;SDS011;4909;42.680;26.324;2023-08-31T06:21:28;514.17;;;472.97;;
9739;SDS011;4909;42.680;26.324;2023-08-31T06:23:55;531.63;;;490.17;;
9739;SDS011;4909;42.680;26.324;2023-08-31T06:26:22;525.57;;;484.27;;
9739;SDS011;4909;42.680;26.324;2023-08-31T06:28:49;536.63;;;494.83;;
9739;SDS011;4909;42.680;26.324;2023-08-31T06:31:16;540.33;;;498.57;;
9739;SDS011;4909;42.680;26.324;2023-08-31T06:33:44;519.00;;;477.87;;
9739;SDS011;4909;42.680;26.324;2023-08-31T06:36:10;535.97;;;494.37;;
9739;SDS011;4909;42.680;26.324;2023-08-31T06:38:37;529.33;;;487.77;;
9739;SDS011;4909;42.680;26.324;2023-08-31T06:41:04;537.83;;;496.17;;
9739;SDS011;4909;42.680;26.324;2023-08-31T06:43:31;544.33;;;502.33;;
9739;SDS011;4909;42.680;26.324;2023-08-31T06:45:58;533.17;;;491.67;;
9739;SDS011;4909;42.680;26.324;2023-08-31T06:48:24;546.93;;;505.47;;
9739;SDS011;4909;42.680;26.324;2023-08-31T06:50:52;543.70;;;501.77;;
9739;SDS011;4909;42.680;26.324;2023-08-31T06:53:19;542.30;;;500.10;;
9739;SDS011;4909;42.680;26.324;2023-08-31T06:55:46;560.53;;;518.43;;
9739;SDS011;4909;42.680;26.324;2023-08-31T06:58:13;543.47;;;502.17;;
9739;SDS011;4909;42.680;26.324;2023-08-31T07:00:40;552.80;;;511.17;;
9739;SDS011;4909;42.680;26.324;2023-08-31T07:03:06;553.97;;;512.33;;
9739;SDS011;4909;42.680;26.324;2023-08-31T07:05:34;557.90;;;516.27;;
9739;SDS011;4909;42.680;26.324;2023-08-31T07:08:03;571.57;;;529.63;;
9739;SDS011;4909;42.680;26.324;2023-08-31T07:10:30;577.07;;;534.77;;
9739;SDS011;4909;42.680;26.324;2023-08-31T07:12:56;585.13;;;542.73;;
9739;SDS011;4909;42.680;26.324;2023-08-31T07:15:23;569.37;;;527.83;;
9739;SDS011;4909;42.680;26.324;2023-08-31T07:17:50;579.53;;;537.77;;
9739;SDS011;4909;42.680;26.324;2023-08-31T07:20:17;573.83;;;532.47;;
9739;SDS011;4909;42.680;26.324;2023-08-31T07:22:43;602.53;;;560.43;;
9739;SDS011;4909;42.680;26.324;2023-08-31T07:25:11;579.37;;;537.47;;
9739;SDS011;4909;42.680;26.324;2023-08-31T07:27:38;598.87;;;556.87;;
9739;SDS011;4909;42.680;26.324;2023-08-31T07:30:05;600.27;;;557.93;;
9739;SDS011;4909;42.680;26.324;2023-08-31T07:32:33;593.27;;;551.60;;
9739;SDS011;4909;42.680;26.324;2023-08-31T07:34:59;611.17;;;569.10;;
9739;SDS011;4909;42.680;26.324;2023-08-31T07:37:29;616.73;;;573.73;;
9739;SDS011;4909;42.680;26.324;2023-08-31T07:39:56;619.60;;;576.97;;
9739;SDS011;4909;42.680;26.324;2023-08-31T07:42:24;620.37;;;578.07;;
9739;SDS011;4909;42.680;26.324;2023-08-31T07:44:51;624.93;;;582.47;;
9739;SDS011;4909;42.680;26.324;2023-08-31T07:47:18;624.10;;;580.47;;
9739;SDS011;4909;42.680;26.324;2023-08-31T07:49:44;625.60;;;583.33;;
9739;SDS011;4909;42.680;26.324;2023-08-31T07:52:11;637.57;;;595.07;;
9739;SDS011;4909;42.680;26.324;2023-08-31T07:54:38;631.80;;;589.23;;
9739;SDS011;4909;42.680;26.324;2023-08-31T07:57:05;664.07;;;621.43;;
9739;SDS011;4909;42.680;26.324;2023-08-31T07:59:33;647.67;;;605.20;;
9739;SDS011;4909;42.680;26.324;2023-08-31T08:01:59;652.53;;;609.90;;
9739;SDS011;4909;42.680;26.324;2023-08-31T08:04:26;675.17;;;631.97;;
9739;SDS011;4909;42.680;26.324;2023-08-31T08:06:54;688.03;;;644.83;;
9739;SDS011;4909;42.680;26.324;2023-08-31T08:09:21;688.07;;;644.97;;
9739;SDS011;4909;42.680;26.324;2023-08-31T08:11:48;716.50;;;672.83;;
9739;SDS011;4909;42.680;26.324;2023-08-31T08:14:15;717.73;;;673.73;;
9739;SDS011;4909;42.680;26.324;2023-08-31T08:16:45;719.30;;;675.63;;
9739;SDS011;4909;42.680;26.324;2023-08-31T08:19:12;730.90;;;687.33;;
9739;SDS011;4909;42.680;26.324;2023-08-31T08:21:39;720.30;;;676.63;;
9739;SDS011;4909;42.680;26.324;2023-08-31T08:24:05;730.50;;;686.67;;
9739;SDS011;4909;42.680;26.324;2023-08-31T08:26:32;703.10;;;659.60;;
9739;SDS011;4909;42.680;26.324;2023-08-31T08:28:59;710.10;;;666.60;;
9739;SDS011;4909;42.680;26.324;2023-08-31T08:31:26;704.23;;;660.90;;
9739;SDS011;4909;42.680;26.324;2023-08-31T08:33:54;731.23;;;687.20;;
9739;SDS011;4909;42.680;26.324;2023-08-31T08:36:21;718.70;;;675.33;;
9739;SDS011;4909;42.680;26.324;2023-08-31T08:38:47;694.63;;;651.47;;
9739;SDS011;4909;42.680;26.324;2023-08-31T08:41:14;697.80;;;654.60;;
9739;SDS011;4909;42.680;26.324;2023-08-31T08:43:44;709.10;;;665.87;;
9739;SDS011;4909;42.680;26.324;2023-08-31T08:46:13;693.53;;;650.13;;
9739;SDS011;4909;42.680;26.324;2023-08-31T08:48:40;710.33;;;667.10;;
9739;SDS011;4909;42.680;26.324;2023-08-31T08:51:09;720.37;;;676.77;;
9739;SDS011;4909;42.680;26.324;2023-08-31T08:53:36;700.80;;;656.90;;
9739;SDS011;4909;42.680;26.324;2023-08-31T08:56:04;708.23;;;664.70;;
9739;SDS011;4909;42.680;26.324;2023-08-31T08:58:31;716.53;;;672.53;;
9739;SDS011;4909;42.680;26.324;2023-08-31T09:00:57;716.77;;;673.37;;
9739;SDS011;4909;42.680;26.324;2023-08-31T09:03:24;704.73;;;661.63;;
9739;SDS011;4909;42.680;26.324;2023-08-31T09:05:51;699.43;;;655.97;;
9739;SDS011;4909;42.680;26.324;2023-08-31T09:08:25;708.37;;;665.13;;
9739;SDS011;4909;42.680;26.324;2023-08-31T09:10:54;699.17;;;656.07;;
9739;SDS011;4909;42.680;26.324;2023-08-31T09:13:25;710.90;;;667.67;;
9739;SDS011;4909;42.680;26.324;2023-08-31T09:15:54;710.07;;;666.23;;
9739;SDS011;4909;42.680;26.324;2023-08-31T09:18:23;707.47;;;663.63;;
9739;SDS011;4909;42.680;26.324;2023-08-31T09:20:51;701.97;;;658.70;;
9739;SDS011;4909;42.680;26.324;2023-08-31T09:23:19;697.90;;;654.73;;
9739;SDS011;4909;42.680;26.324;2023-08-31T09:25:47;704.57;;;661.10;;
9739;SDS011;4909;42.680;26.324;2023-08-31T09:28:15;709.93;;;664.43;;
9739;SDS011;4909;42.680;26.324;2023-08-31T09:30:42;691.63;;;648.23;;
9739;SDS011;4909;42.680;26.324;2023-08-31T09:33:09;695.63;;;652.50;;
9739;SDS011;4909;42.680;26.324;2023-08-31T09:35:45;677.53;;;634.63;;
9739;SDS011;4909;42.680;26.324;2023-08-31T09:38:14;670.53;;;627.60;;
9739;SDS011;4909;42.680;26.324;2023-08-31T09:40:42;661.40;;;618.70;;
9739;SDS011;4909;42.680;26.324;2023-08-31T09:43:09;682.93;;;639.77;;
9739;SDS011;4909;42.680;26.324;2023-08-31T09:45:36;672.17;;;629.27;;
9739;SDS011;4909;42.680;26.324;2023-08-31T09:48:04;664.00;;;621.00;;
9739;SDS011;4909;42.680;26.324;2023-08-31T09:50:32;653.03;;;610.07;;
9739;SDS011;4909;42.680;26.324;2023-08-31T09:53:00;648.33;;;606.13;;
9739;SDS011;4909;42.680;26.324;2023-08-31T09:55:29;663.57;;;620.67;;
9739;SDS011;4909;42.680;26.324;2023-08-31T09:57:59;660.87;;;617.97;;
9739;SDS011;4909;42.680;26.324;2023-08-31T10:00:28;632.73;;;590.47;;
9739;SDS011;4909;42.680;26.324;2023-08-31T10:02:56;640.37;;;598.27;;
9739;SDS011;4909;42.680;26.324;2023-08-31T10:05:26;645.27;;;602.40;;
9739;SDS011;4909;42.680;26.324;2023-08-31T10:07:54;642.33;;;599.53;;
9739;SDS011;4909;42.680;26.324;2023-08-31T10:10:21;639.57;;;596.87;;
9739;SDS011;4909;42.680;26.324;2023-08-31T10:12:49;649.60;;;606.93;;
9739;SDS011;4909;42.680;26.324;2023-08-31T10:15:18;637.43;;;594.83;;
9739;SDS011;4909;42.680;26.324;2023-08-31T10:17:47;629.73;;;587.07;;
9739;SDS011;4909;42.680;26.324;2023-08-31T10:20:15;635.93;;;592.90;;
9739;SDS011;4909;42.680;26.324;2023-08-31T10:22:43;642.27;;;598.73;;
9739;SDS011;4909;42.680;26.324;2023-08-31T10:25:10;640.70;;;598.57;;
9739;SDS011;4909;42.680;26.324;2023-08-31T10:27:37;637.63;;;595.03;;
9739;SDS011;4909;42.680;26.324;2023-08-31T10:30:15;650.77;;;607.97;;
9739;SDS011;4909;42.680;26.324;2023-08-31T10:33:02;653.60;;;610.37;;
9739;SDS011;4909;42.680;26.324;2023-08-31T10:35:48;672.43;;;628.83;;
9739;SDS011;4909;42.680;26.324;2023-08-31T10:38:16;665.97;;;623.20;;
9739;SDS011;4909;42.680;26.324;2023-08-31T10:40:59;665.60;;;622.67;;
9739;SDS011;4909;42.680;26.324;2023-08-31T10:43:28;664.83;;;621.90;;
9739;SDS011;4909;42.680;26.324;2023-08-31T10:46:18;659.83;;;617.53;;
9739;SDS011;4909;42.680;26.324;2023-08-31T10:48:50;634.10;;;592.03;;
9739;SDS011;4909;42.680;26.324;2023-08-31T10:51:18;654.37;;;611.73;;
9739;SDS011;4909;42.680;26.324;2023-08-31T10:53:48;641.00;;;598.60;;
9739;SDS011;4909;42.680;26.324;2023-08-31T10:56:15;654.03;;;611.20;;
9739;SDS011;4909;42.680;26.324;2023-08-31T10:58:42;641.43;;;599.17;;
9739;SDS011;4909;42.680;26.324;2023-08-31T11:01:14;624.10;;;582.23;;
9739;SDS011;4909;42.680;26.324;2023-08-31T11:04:06;647.60;;;605.10;;
9739;SDS011;4909;42.680;26.324;2023-08-31T11:06:36;635.80;;;593.50;;
9739;SDS011;4909;42.680;26.324;2023-08-31T11:09:03;645.73;;;603.23;;
9739;SDS011;4909;42.680;26.324;2023-08-31T11:11:37;644.67;;;602.10;;
9739;SDS011;4909;42.680;26.324;2023-08-31T11:14:04;638.67;;;596.37;;
9739;SDS011;4909;42.680;26.324;2023-08-31T11:16:30;644.07;;;601.60;;
9739;SDS011;4909;42.680;26.324;2023-08-31T11:18:57;663.03;;;620.53;;
9739;SDS011;4909;42.680;26.324;2023-08-31T11:21:25;663.97;;;620.53;;
9739;SDS011;4909;42.680;26.324;2023-08-31T11:23:52;651.60;;;609.07;;
9739;SDS011;4909;42.680;26.324;2023-08-31T11:26:22;664.77;;;621.97;;
9739;SDS011;4909;42.680;26.324;2023-08-31T11:28:50;653.47;;;610.83;;
9739;SDS011;4909;42.680;26.324;2023-08-31T11:31:22;650.77;;;608.20;;
9739;SDS011;4909;42.680;26.324;2023-08-31T11:33:49;635.80;;;593.57;;
9739;SDS011;4909;42.680;26.324;2023-08-31T11:36:16;666.10;;;623.40;;
9739;SDS011;4909;42.680;26.324;2023-08-31T11:38:45;644.80;;;602.20;;
9739;SDS011;4909;42.680;26.324;2023-08-31T11:41:13;635.47;;;593.00;;
9739;SDS011;4909;42.680;26.324;2023-08-31T11:43:40;659.13;;;616.13;;
9739;SDS011;4909;42.680;26.324;2023-08-31T11:46:08;648.87;;;606.13;;
9739;SDS011;4909;42.680;26.324;2023-08-31T11:48:35;651.77;;;609.30;;
9739;SDS011;4909;42.680;26.324;2023-08-31T11:51:02;648.37;;;605.90;;
9739;SDS011;4909;42.680;26.324;2023-08-31T11:53:29;633.23;;;590.83;;
9739;SDS011;4909;42.680;26.324;2023-08-31T11:55:57;629.40;;;587.43;;
9739;SDS011;4909;42.680;26.324;2023-08-31T11:58:28;658.63;;;615.77;;
9739;SDS011;4909;42.680;26.324;2023-08-31T12:00:56;627.90;;;585.73;;
9739;SDS011;4909;42.680;26.324;2023-08-31T12:03:23;644.37;;;601.87;;
9739;SDS011;4909;42.680;26.324;2023-08-31T12:05:51;652.70;;;610.03;;
9739;SDS011;4909;42.680;26.324;2023-08-31T12:08:29;657.47;;;614.77;;
9739;SDS011;4909;42.680;26.324;2023-08-31T12:10:56;629.80;;;587.47;;
9739;SDS011;4909;42.680;26.324;2023-08-31T12:13:27;638.77;;;596.40;;
9739;SDS011;4909;42.680;26.324;2023-08-31T12:15:55;646.00;;;603.23;;
9739;SDS011;4909;42.680;26.324;2023-08-31T12:18:21;636.50;;;594.30;;
9739;SDS011;4909;42.680;26.324;2023-08-31T12:20:50;646.33;;;603.60;;
9739;SDS011;4909;42.680;26.324;2023-08-31T12:23:17;643.77;;;601.17;;
9739;SDS011;4909;42.680;26.324;2023-08-31T12:25:47;649.60;;;606.60;;
9739;SDS011;4909;42.680;26.324;2023-08-31T12:28:16;635.53;;;593.27;;
9739;SDS011;4909;42.680;26.324;2023-08-31T12:30:46;633.47;;;591.40;;
9739;SDS011;4909;42.680;26.324;2023-08-31T12:33:14;635.50;;;593.27;;
9739;SDS011;4909;42.680;26.324;2023-08-31T12:35:40;623.50;;;581.23;;
9739;SDS011;4909;42.680;26.324;2023-08-31T12:38:07;639.37;;;597.10;;
9739;SDS011;4909;42.680;26.324;2023-08-31T12:40:34;635.57;;;593.17;;
9739;SDS011;4909;42.680;26.324;2023-08-31T12:43:03;626.80;;;584.70;;
9739;SDS011;4909;42.680;26.324;2023-08-31T12:45:32;629.37;;;587.30;;
9739;SDS011;4909;42.680;26.324;2023-08-31T12:47:59;652.43;;;609.73;;
9739;SDS011;4909;42.680;26.324;2023-08-31T12:50:26;644.43;;;601.97;;
9739;SDS011;4909;42.680;26.324;2023-08-31T12:52:53;657.37;;;614.70;;
9739;SDS011;4909;42.680;26.324;2023-08-31T12:55:19;632.63;;;590.10;;
9739;SDS011;4909;42.680;26.324;2023-08-31T12:57:46;634.30;;;591.70;;
9739;SDS011;4909;42.680;26.324;2023-08-31T13:00:14;619.00;;;576.87;;
9739;SDS011;4909;42.680;26.324;2023-08-31T13:02:43;633.97;;;591.03;;
9739;SDS011;4909;42.680;26.324;2023-08-31T13:05:10;624.47;;;582.13;;
9739;SDS011;4909;42.680;26.324;2023-08-31T13:07:37;606.20;;;563.93;;
9739;SDS011;4909;42.680;26.324;2023-08-31T13:10:05;617.67;;;575.53;;
9739;SDS011;4909;42.680;26.324;2023-08-31T13:12:32;609.03;;;567.00;;
9739;SDS011;4909;42.680;26.324;2023-08-31T13:15:00;608.50;;;566.17;;
9739;SDS011;4909;42.680;26.324;2023-08-31T13:17:27;619.37;;;577.23;;
9739;SDS011;4909;42.680;26.324;2023-08-31T13:19:55;609.30;;;567.13;;
9739;SDS011;4909;42.680;26.324;2023-08-31T13:22:23;626.83;;;584.43;;
9739;SDS011;4909;42.680;26.324;2023-08-31T13:24:50;606.80;;;564.83;;
9739;SDS011;4909;42.680;26.324;2023-08-31T13:27:17;610.80;;;569.07;;
9739;SDS011;4909;42.680;26.324;2023-08-31T13:29:44;608.47;;;566.80;;
9739;SDS011;4909;42.680;26.324;2023-08-31T13:32:11;610.50;;;568.90;;
9739;SDS011;4909;42.680;26.324;2023-08-31T13:34:38;604.20;;;562.53;;
9739;SDS011;4909;42.680;26.324;2023-08-31T13:37:06;606.73;;;564.70;;
9739;SDS011;4909;42.680;26.324;2023-08-31T13:39:34;619.00;;;576.83;;
9739;SDS011;4909;42.680;26.324;2023-08-31T13:42:01;618.30;;;575.67;;
9739;SDS011;4909;42.680;26.324;2023-08-31T13:44:29;620.03;;;577.77;;
9739;SDS011;4909;42.680;26.324;2023-08-31T13:46:56;605.93;;;564.07;;
9739;SDS011;4909;42.680;26.324;2023-08-31T13:49:23;598.83;;;557.03;;
9739;SDS011;4909;42.680;26.324;2023-08-31T13:51:49;612.90;;;570.47;;
9739;SDS011;4909;42.680;26.324;2023-08-31T13:54:18;613.23;;;570.93;;
9739;SDS011;4909;42.680;26.324;2023-08-31T13:56:45;616.63;;;574.33;;
9739;SDS011;4909;42.680;26.324;2023-08-31T13:59:11;609.97;;;568.00;;
9739;SDS011;4909;42.680;26.324;2023-08-31T14:01:38;606.20;;;564.60;;
9739;SDS011;4909;42.680;26.324;2023-08-31T14:04:05;624.00;;;581.73;;
9739;SDS011;4909;42.680;26.324;2023-08-31T14:06:32;623.70;;;581.07;;
9739;SDS011;4909;42.680;26.324;2023-08-31T14:08:59;605.67;;;563.87;;
9739;SDS011;4909;42.680;26.324;2023-08-31T14:11:27;613.57;;;571.33;;
9739;SDS011;4909;42.680;26.324;2023-08-31T14:14:00;619.03;;;576.70;;